Terminal Aerodrome Forecast
Issued by NWS

Home | Current Version | Previous Version | Text Only | Print | Product List | Glossary On
Versions: 1 2 3 4 5 6 7 8 9 10 11 12 13 14 15 16 17 18 19 20 21 22 23 24 25 26
554
FTUS46 KEKA 061437 AAA
TAFCEC
TAF AMD
KCEC 061437Z 0615/0712 13005KT P6SM OVC040
     FM061600 13004KT P6SM FEW025 BKN040 BKN250
     FM062100 22003KT P6SM SCT050 BKN120 BKN200
     FM070100 VRB03KT P6SM SCT050 BKN080
     FM070800 07003KT 6SM BR FEW020 BKN060=

USA.gov is the U.S. government's official web portal to all federal, state and local government web resources and services.